Terminal Aerodrome Forecast
Issued by NWS Jacksonville, FL

Home | Current Version | Previous Version | Text Only | Print | Product List | Glossary On
Versions: 1 2 3 4 5 6 7 8 9 10 11 12 13 14 15 16
000
FTUS42 KJAX 302223 AAB
TAFJAX
TAF AMD
KJAX 302223Z 3022/3118 14008KT P6SM SCT050 SCT250
     FM310200 20004KT P6SM FEW050 SCT250
     FM311600 27006KT P6SM SCT050 SCT250=

USA.gov is the U.S. government's official web portal to all federal, state and local government web resources and services.